Time;durP1;ratioP1;P1;durP2;ratioP2;P2;SDS_P1;SDS_P2;PMS_P1;PMS_P2;Temp;Humidity;BMP_temperature;BMP_pressure;BME280_temperature;BME280_humidity;BME280_pressure;Samples;Min_cycle;Max_cycle;Signal;HPM_P1;HPM_P2
2021/05/31 00:02:25;;;;;;;8.60;3.13;;;10.70;64.40;;;;;;5074955;28;20036;-72
2021/05/31 00:04:58;;;;;;;9.45;3.63;;;10.70;64.40;;;;;;5074694;28;20480;-72
2021/05/31 00:07:25;;;;;;;7.03;3.67;;;10.70;64.00;;;;;;5074844;28;20051;-72
2021/05/31 00:09:54;;;;;;;6.28;3.17;;;10.70;64.40;;;;;;5074817;28;20119;-72
2021/05/31 00:12:22;;;;;;;7.72;3.58;;;10.70;65.00;;;;;;5075280;28;20048;-72
2021/05/31 00:14:49;;;;;;;7.75;3.55;;;10.70;64.90;;;;;;5074591;28;20044;-72
2021/05/31 00:17:15;;;;;;;6.57;3.45;;;10.70;65.10;;;;;;5057908;28;20076;-72
2021/05/31 00:19:42;;;;;;;6.18;3.00;;;10.70;64.80;;;;;;5074655;28;20029;-71
2021/05/31 00:22:09;;;;;;;5.75;2.85;;;10.70;64.10;;;;;;5074830;28;20070;-71
2021/05/31 00:24:36;;;;;;;7.07;3.17;;;10.60;64.90;;;;;;5057746;28;20403;-72
2021/05/31 00:27:03;;;;;;;7.18;3.05;;;10.60;64.80;;;;;;5074771;28;20059;-71
2021/05/31 00:29:31;;;;;;;6.68;3.13;;;10.60;64.70;;;;;;5074592;28;20036;-72
2021/05/31 00:31:58;;;;;;;6.88;3.08;;;10.60;64.70;;;;;;5074802;28;20048;-72
2021/05/31 00:34:26;;;;;;;7.68;3.35;;;10.70;64.80;;;;;;5074423;28;20392;-72
2021/05/31 00:36:53;;;;;;;9.35;3.47;;;10.60;64.70;;;;;;5057784;28;20089;-72
2021/05/31 00:39:37;;;;;;;8.23;3.33;;;10.70;64.30;;;;;;5057594;28;20373;-72
2021/05/31 00:42:05;;;;;;;5.43;2.95;;;10.70;65.30;;;;;;5074707;28;20488;-71
2021/05/31 00:44:32;;;;;;;7.15;3.13;;;10.70;65.10;;;;;;5096430;28;20034;-72
2021/05/31 00:47:01;;;;;;;7.75;3.42;;;10.70;65.20;;;;;;5078563;28;20110;-72
2021/05/31 00:49:35;;;;;;;8.98;3.67;;;10.80;65.10;;;;;;5078096;28;20050;-72
2021/05/31 00:52:21;;;;;;;8.00;3.50;;;10.80;64.40;;;;;;5096320;28;20497;-72
2021/05/31 00:54:47;;;;;;;8.45;3.47;;;10.80;65.00;;;;;;5096160;28;20040;-72
2021/05/31 00:57:15;;;;;;;7.55;3.80;;;10.90;64.90;;;;;;5078434;28;20515;-72
2021/05/31 00:59:42;;;;;;;8.10;3.30;;;10.90;65.00;;;;;;5078110;28;20036;-71
2021/05/31 01:02:09;;;;;;;5.72;2.70;;;10.90;65.30;;;;;;5061425;28;20109;-73
2021/05/31 01:04:36;;;;;;;6.30;3.15;;;10.80;65.20;;;;;;5077990;28;20527;-72
2021/05/31 01:07:25;;;;;;;6.93;3.20;;;10.80;65.50;;;;;;5061581;28;20056;-72
2021/05/31 01:10:29;;;;;;;8.88;3.25;;;10.80;65.50;;;;;;5095906;28;20404;-73
2021/05/31 01:13:52;;;;;;;8.13;2.97;;;10.80;65.60;;;;;;5095972;28;20519;-72
2021/05/31 01:16:21;;;;;;;10.30;3.70;;;10.80;65.50;;;;;;5077653;28;20389;-72
2021/05/31 01:18:49;;;;;;;6.03;2.92;;;10.70;65.50;;;;;;5095816;28;20040;-71
2021/05/31 01:21:24;;;;;;;7.38;3.25;;;10.70;65.70;;;;;;5060894;28;20044;-71
2021/05/31 01:24:08;;;;;;;7.65;3.13;;;10.70;65.90;;;;;;5077549;28;20488;-72
2021/05/31 01:27:31;;;;;;;5.63;2.60;;;10.60;66.00;;;;;;5077811;28;20476;-72
2021/05/31 01:30:21;;;;;;;8.43;3.33;;;10.60;66.00;;;;;;5095562;28;20036;-71
2021/05/31 01:33:11;;;;;;;10.05;3.15;;;10.60;66.20;;;;;;5078312;28;20086;-72
2021/05/31 01:35:38;;;;;;;6.25;3.15;;;10.60;66.10;;;;;;5077599;28;20197;-72
2021/05/31 01:38:09;;;;;;;7.15;2.72;;;10.60;66.10;;;;;;5077282;28;20036;-72
2021/05/31 01:40:36;;;;;;;6.43;2.92;;;10.50;66.40;;;;;;5077337;28;20070;-72
2021/05/31 01:43:04;;;;;;;6.85;3.30;;;10.50;66.50;;;;;;5077416;28;20039;-72
2021/05/31 01:45:32;;;;;;;6.55;3.22;;;10.50;66.30;;;;;;5077512;28;20043;-71
2021/05/31 01:47:59;;;;;;;8.07;3.20;;;10.40;67.00;;;;;;5095309;28;20051;-72
2021/05/31 01:50:28;;;;;;;10.85;3.50;;;10.40;67.10;;;;;;5077044;28;20044;-72
2021/05/31 01:52:55;;;;;;;8.32;3.20;;;10.30;67.20;;;;;;5077220;28;20047;-72
2021/05/31 01:55:24;;;;;;;9.43;2.95;;;10.40;67.10;;;;;;5076255;28;20044;-72
2021/05/31 01:57:52;;;;;;;7.90;3.03;;;10.40;67.00;;;;;;5095128;28;20040;-72
2021/05/31 02:00:19;;;;;;;6.03;2.90;;;10.40;66.70;;;;;;5077080;28;20036;-71
2021/05/31 02:02:45;;;;;;;7.50;3.03;;;10.50;66.80;;;;;;5077009;28;20377;-72
2021/05/31 02:05:15;;;;;;;8.75;3.30;;;10.50;66.20;;;;;;5094979;28;20298;-72
2021/05/31 02:07:41;;;;;;;7.18;3.42;;;10.50;66.50;;;;;;5077118;28;20032;-72
2021/05/31 02:10:11;;;;;;;8.73;3.55;;;10.50;66.00;;;;;;5076592;28;20051;-72
2021/05/31 02:12:57;;;;;;;8.57;3.45;;;10.60;66.50;;;;;;5076551;28;20489;-72
2021/05/31 02:16:00;;;;;;;7.53;3.35;;;10.50;66.70;;;;;;5059829;28;20396;-72
2021/05/31 02:18:37;;;;;;;8.88;3.67;;;10.50;66.90;;;;;;5094786;28;20036;-72
2021/05/31 02:21:07;;;;;;;;;;;10.50;66.70;;;;;;5077363;28;20127;-72
2021/05/31 02:23:36;;;;;;;8.40;3.70;;;10.50;66.30;;;;;;5076619;28;19912;-72
2021/05/31 02:26:03;;;;;;;6.82;2.90;;;10.40;66.60;;;;;;5076575;28;20128;-72
2021/05/31 02:28:30;;;;;;;6.68;3.47;;;10.40;67.00;;;;;;5076443;28;20036;-72
2021/05/31 02:30:57;;;;;;;6.95;3.00;;;10.40;67.00;;;;;;5059666;28;20044;-72
2021/05/31 02:33:25;;;;;;;7.18;3.22;;;10.40;67.00;;;;;;5076306;28;20512;-72
2021/05/31 02:35:52;;;;;;;9.90;3.47;;;10.40;67.10;;;;;;5076438;28;20511;-72
2021/05/31 02:38:18;;;;;;;7.45;3.58;;;10.40;67.30;;;;;;5094369;28;20392;-72
2021/05/31 02:40:45;;;;;;;6.68;3.08;;;10.30;67.50;;;;;;5076246;28;20075;-72
2021/05/31 02:43:12;;;;;;;7.07;2.97;;;10.20;66.90;;;;;;5059561;28;20032;-71
2021/05/31 02:45:39;;;;;;;9.63;3.17;;;10.20;67.70;;;;;;5059398;28;20056;-72
2021/05/31 02:48:07;;;;;;;7.55;3.33;;;10.20;67.80;;;;;;5094168;28;20036;-72
2021/05/31 02:50:34;;;;;;;7.60;3.45;;;10.20;67.80;;;;;;5075833;28;20130;-72
2021/05/31 02:53:03;;;;;;;5.88;2.65;;;10.30;67.60;;;;;;5094111;28;20136;-72
2021/05/31 02:55:32;;;;;;;9.35;2.85;;;10.30;67.50;;;;;;5075807;28;20067;-71
2021/05/31 02:57:59;;;;;;;9.90;2.92;;;10.30;67.30;;;;;;5075804;28;20036;-72
2021/05/31 03:00:28;;;;;;;6.47;2.42;;;10.30;67.20;;;;;;5075730;28;20496;-72
2021/05/31 03:02:55;;;;;;;6.35;2.72;;;10.30;67.10;;;;;;5075830;28;20064;-72
2021/05/31 03:05:42;;;;;;;5.35;2.88;;;10.30;67.30;;;;;;5075295;28;20126;-72
2021/05/31 03:08:09;;;;;;;6.75;2.80;;;10.40;67.20;;;;;;5075389;28;20044;-72
2021/05/31 03:10:35;;;;;;;;;;;10.40;67.10;;;;;;5094075;28;20059;-72
2021/05/31 03:13:02;;;;;;;7.00;3.38;;;10.40;66.10;;;;;;5094052;28;20015;-71
2021/05/31 03:15:29;;;;;;;6.05;2.60;;;10.40;66.90;;;;;;5093599;28;20044;-72
2021/05/31 03:17:55;;;;;;;;;;;10.40;67.20;;;;;;5076015;28;20415;-71
2021/05/31 03:20:25;;;;;;;6.82;2.40;;;10.30;67.00;;;;;;5075482;28;20287;-72
2021/05/31 03:22:52;;;;;;;9.00;2.67;;;10.30;67.40;;;;;;5075396;28;20093;-72
2021/05/31 03:25:19;;;;;;;5.78;2.55;;;10.20;67.50;;;;;;5075369;28;20040;-71
2021/05/31 03:27:46;;;;;;;7.30;2.90;;;10.20;67.20;;;;;;5093370;28;20497;-72
2021/05/31 03:30:14;;;;;;;8.90;3.33;;;10.20;68.10;;;;;;5092966;28;20123;-72
2021/05/31 03:32:41;;;;;;;7.20;2.58;;;10.20;68.10;;;;;;5075267;28;20040;-72
2021/05/31 03:35:10;;;;;;;6.55;2.78;;;10.20;67.80;;;;;;5058551;28;20164;-72
2021/05/31 03:37:37;;;;;;;7.13;2.63;;;10.30;67.90;;;;;;5058364;28;20036;-72
2021/05/31 03:40:06;;;;;;;6.03;2.90;;;10.30;67.90;;;;;;5093007;28;20032;-72
2021/05/31 03:42:33;;;;;;;8.90;2.92;;;10.30;67.90;;;;;;5058351;28;20074;-72
2021/05/31 03:44:59;;;;;;;5.78;2.88;;;10.30;67.90;;;;;;5058335;28;20044;-72
2021/05/31 03:47:25;;;;;;;5.53;2.67;;;10.40;67.80;;;;;;5075064;28;20519;-72
2021/05/31 03:49:51;;;;;;;5.95;2.92;;;10.50;67.60;;;;;;5074776;28;20067;-72
2021/05/31 03:52:17;;;;;;;;;;;10.60;67.50;;;;;;5075481;28;20114;-71
2021/05/31 03:57:47;;;;;;;9.23;4.10;;;10.70;67.00;;;;;;5030227;28;20058;-72
2021/05/31 04:00:15;;;;;;;6.28;3.28;;;10.70;67.10;;;;;;5030147;28;20073;-72
2021/05/31 04:02:42;;;;;;;6.22;2.90;;;10.70;67.00;;;;;;5030424;28;20498;-72
2021/05/31 04:05:12;;;;;;;9.00;2.97;;;10.80;67.10;;;;;;5030243;28;20577;-72
2021/05/31 04:13:08;;;;;;;5.75;2.75;;;10.90;67.40;;;;;;5030259;28;20156;-72
2021/05/31 04:15:34;;;;;;;;;;;10.90;67.40;;;;;;5030853;28;20149;-71
2021/05/31 04:18:00;;;;;;;6.90;3.00;;;10.90;66.60;;;;;;5013526;28;19913;-71
2021/05/31 04:20:27;;;;;;;;;;;10.90;67.30;;;;;;5030707;28;20413;-72
2021/05/31 04:22:53;;;;;;;8.00;3.30;;;11.00;66.90;;;;;;5030249;28;19960;-72
2021/05/31 04:25:19;;;;;;;;;;;10.90;67.70;;;;;;5014296;28;20049;-71
2021/05/31 04:27:45;;;;;;;6.38;2.88;;;10.80;67.20;;;;;;5037352;28;20349;-71
2021/05/31 04:30:12;;;;;;;6.90;3.92;;;10.90;68.20;;;;;;5074368;28;20037;-72
2021/05/31 04:32:38;;;;;;;6.20;3.67;;;11.00;67.90;;;;;;5057623;28;20040;-72
2021/05/31 04:35:05;;;;;;;;;;;11.10;68.00;;;;;;5092898;28;20048;-71
2021/05/31 04:37:33;;;;;;;8.03;2.97;;;11.10;67.50;;;;;;5057821;28;19951;-71
2021/05/31 04:39:59;;;;;;;5.82;2.90;;;11.20;67.80;;;;;;5092531;28;20488;-71
2021/05/31 04:42:26;;;;;;;8.40;3.13;;;11.30;67.40;;;;;;5074547;28;20459;-71
2021/05/31 04:44:52;;;;;;;;;;;11.30;68.00;;;;;;5074940;28;20044;-72
2021/05/31 04:47:18;;;;;;;5.72;2.72;;;11.30;66.90;;;;;;5074551;28;19924;-72
2021/05/31 04:49:44;;;;;;;;;;;11.40;67.70;;;;;;5074899;28;20111;-72
2021/05/31 04:52:11;;;;;;;6.05;2.78;;;11.40;67.30;;;;;;5092398;28;19958;-72
2021/05/31 04:54:37;;;;;;;6.85;2.85;;;11.40;68.40;;;;;;5074418;28;20042;-71
2021/05/31 04:57:04;;;;;;;11.50;2.97;;;11.40;67.90;;;;;;5074518;28;20126;-72
2021/05/31 04:59:30;;;;;;;7.13;2.90;;;11.40;68.00;;;;;;5074329;28;20064;-72
2021/05/31 05:01:56;;;;;;;7.30;2.70;;;11.40;68.80;;;;;;5092807;28;20127;-71
2021/05/31 05:04:23;;;;;;;5.43;2.80;;;11.40;68.80;;;;;;5074300;28;20488;-72
2021/05/31 05:06:49;;;;;;;;;;;11.40;68.70;;;;;;5075034;28;20040;-73
2021/05/31 05:09:15;;;;;;;6.60;2.97;;;11.50;67.80;;;;;;5074011;28;19916;-71
2021/05/31 05:11:41;;;;;;;;;;;11.50;68.30;;;;;;5093077;28;20098;-71
2021/05/31 05:14:07;;;;;;;5.63;2.60;;;11.40;67.60;;;;;;5092256;28;19973;-71
2021/05/31 05:16:33;;;;;;;;;;;11.50;68.40;;;;;;5093105;28;20044;-71
2021/05/31 05:19:00;;;;;;;7.00;2.80;;;11.50;67.50;;;;;;5092204;28;19912;-72
2021/05/31 05:21:26;;;;;;;;;;;11.50;68.10;;;;;;5074860;28;20036;-72
2021/05/31 05:23:52;;;;;;;10.68;3.33;;;11.50;68.00;;;;;;5092125;28;19981;-70
2021/05/31 05:26:19;;;;;;;8.43;3.63;;;11.40;67.60;;;;;;5074229;28;20048;-72
2021/05/31 05:28:48;;;;;;;6.40;3.25;;;11.40;67.90;;;;;;5074248;28;20036;-71
2021/05/31 05:31:14;;;;;;;6.35;2.97;;;11.50;68.70;;;;;;5077364;28;20046;-71
2021/05/31 05:33:42;;;;;;;;;;;11.50;68.90;;;;;;5077870;28;20032;-71
2021/05/31 05:41:38;;;;;;;7.80;3.08;;;12.00;67.50;;;;;;5080425;28;20521;-72
2021/05/31 05:46:52;;;;;;;8.57;3.58;;;12.40;68.40;;;;;;5095813;28;20047;-72
2021/05/31 05:49:18;;;;;;;5.57;2.65;;;12.60;68.00;;;;;;5077688;28;20561;-72
2021/05/31 05:51:44;;;;;;;;;;;12.80;67.40;;;;;;5077748;28;20138;-72
2021/05/31 05:54:11;;;;;;;12.18;3.00;;;12.90;66.00;;;;;;5077183;28;19912;-71
2021/05/31 05:56:37;;;;;;;;;;;13.10;66.10;;;;;;5077733;28;20079;-72
2021/05/31 05:59:03;;;;;;;7.35;2.65;;;13.30;65.10;;;;;;5095161;28;20394;-73
2021/05/31 06:01:30;;;;;;;6.72;3.08;;;13.40;63.10;;;;;;5095542;28;20067;-72
2021/05/31 06:03:57;;;;;;;;;;;13.60;63.60;;;;;;5060871;28;20028;-72
2021/05/31 06:06:25;;;;;;;5.90;2.97;;;13.70;63.50;;;;;;5077442;28;19920;-72
2021/05/31 06:08:52;;;;;;;7.00;2.47;;;13.70;62.70;;;;;;5077107;28;20119;-72
2021/05/31 06:11:20;;;;;;;8.18;3.20;;;13.80;62.20;;;;;;5076940;28;20071;-72
2021/05/31 06:13:50;;;;;;;11.80;3.65;;;13.90;62.90;;;;;;5076997;28;20063;-72
2021/05/31 06:16:17;;;;;;;8.60;3.33;;;14.00;62.80;;;;;;5077441;28;20074;-72
2021/05/31 06:18:44;;;;;;;5.85;2.95;;;14.10;62.80;;;;;;5093406;28;20472;-72
2021/05/31 06:21:10;;;;;;;14.27;3.60;;;14.20;61.80;;;;;;5076850;28;20072;-71
2021/05/31 06:23:36;;;;;;;;;;;14.30;62.00;;;;;;5095288;28;20043;-72
2021/05/31 06:26:03;;;;;;;4.97;2.50;;;14.40;61.30;;;;;;5094855;28;19966;-72
2021/05/31 06:28:29;;;;;;;7.05;2.78;;;14.50;60.80;;;;;;5076540;28;20054;-72
2021/05/31 06:30:55;;;;;;;6.35;3.28;;;14.60;60.60;;;;;;5093127;28;20588;-72
2021/05/31 06:33:23;;;;;;;16.88;3.40;;;14.70;60.00;;;;;;5076551;28;20040;-72
2021/05/31 06:35:50;;;;;;;6.13;2.80;;;14.80;59.60;;;;;;5076339;28;20496;-72
2021/05/31 06:38:17;;;;;;;7.18;2.70;;;14.90;58.50;;;;;;5059677;28;20036;-72
2021/05/31 06:40:43;;;;;;;7.97;2.55;;;15.00;57.70;;;;;;5076151;28;20123;-72
2021/05/31 06:43:10;;;;;;;5.20;2.33;;;15.10;57.20;;;;;;5094375;28;20115;-72
2021/05/31 06:45:36;;;;;;;8.02;2.78;;;15.20;56.60;;;;;;5076222;28;20421;-72
2021/05/31 06:48:04;;;;;;;;;;;15.30;56.20;;;;;;5094798;28;20036;-71
2021/05/31 06:50:49;;;;;;;7.35;2.50;;;15.40;56.60;;;;;;5075912;28;19982;-73
2021/05/31 06:53:16;;;;;;;5.70;2.50;;;15.50;55.70;;;;;;5075861;28;20040;-72
2021/05/31 06:55:43;;;;;;;10.27;2.88;;;15.60;55.50;;;;;;5094165;28;20043;-72
2021/05/31 06:58:10;;;;;;;6.95;3.00;;;15.80;54.80;;;;;;5059716;28;20432;-72
2021/05/31 07:00:36;;;;;;;6.03;2.70;;;15.80;54.70;;;;;;5075830;28;20067;-73
2021/05/31 07:03:03;;;;;;;6.97;2.58;;;16.00;54.50;;;;;;5075795;28;20040;-72
2021/05/31 07:05:29;;;;;;;;;;;16.10;54.00;;;;;;5094677;28;20036;-72
2021/05/31 07:07:55;;;;;;;4.93;2.30;;;16.30;54.30;;;;;;5059051;28;19919;-72
2021/05/31 07:13:07;;;;;;;5.50;2.53;;;16.50;52.60;;;;;;5093861;28;20118;-72
2021/05/31 07:15:34;;;;;;;5.38;2.13;;;16.70;52.10;;;;;;5058691;28;20476;-72
2021/05/31 07:18:01;;;;;;;6.38;2.10;;;16.80;52.40;;;;;;5075506;28;20032;-72
2021/05/31 07:20:27;;;;;;;6.78;2.58;;;16.80;51.70;;;;;;5075536;28;20121;-72
2021/05/31 07:22:53;;;;;;;;;;;16.90;51.70;;;;;;5094270;28;20043;-72
2021/05/31 07:25:20;;;;;;;8.20;2.47;;;16.90;51.70;;;;;;5075397;28;19931;-72
2021/05/31 07:27:48;;;;;;;6.05;2.40;;;17.00;51.10;;;;;;5075371;28;20082;-72
2021/05/31 07:30:15;;;;;;;9.65;3.25;;;17.00;50.30;;;;;;5093224;28;20036;-72
2021/05/31 07:32:41;;;;;;;8.73;2.40;;;17.10;50.40;;;;;;5058643;28;20036;-72
2021/05/31 07:35:09;;;;;;;8.40;2.88;;;17.20;50.50;;;;;;5075197;28;20272;-72
2021/05/31 07:37:37;;;;;;;5.03;2.28;;;17.20;50.20;;;;;;5075294;28;20040;-72
2021/05/31 07:40:23;;;;;;;5.57;2.72;;;17.20;49.80;;;;;;5075102;28;20102;-72
2021/05/31 07:42:50;;;;;;;7.00;2.70;;;17.30;50.20;;;;;;5075258;28;20051;-72
2021/05/31 07:45:17;;;;;;;7.78;2.80;;;17.40;50.20;;;;;;5093166;28;20389;-72
2021/05/31 07:47:44;;;;;;;5.55;2.30;;;17.40;49.70;;;;;;5093181;28;20040;-72
2021/05/31 07:50:12;;;;;;;6.30;2.97;;;17.50;49.10;;;;;;5092932;28;20046;-72
2021/05/31 07:52:38;;;;;;;5.95;2.65;;;17.60;48.90;;;;;;5057562;28;20052;-72
2021/05/31 07:55:08;;;;;;;6.90;2.80;;;17.70;49.10;;;;;;5092849;28;20097;-72
2021/05/31 07:57:34;;;;;;;5.35;2.85;;;17.70;48.80;;;;;;5075295;28;20039;-72
2021/05/31 08:00:03;;;;;;;11.18;2.70;;;17.80;48.70;;;;;;5058387;28;20040;-71
2021/05/31 08:02:29;;;;;;;5.63;2.70;;;17.80;48.20;;;;;;5093609;28;20439;-72
2021/05/31 08:04:55;;;;;;;5.65;2.40;;;17.90;48.30;;;;;;5074845;28;20040;-72
2021/05/31 08:07:21;;;;;;;;;;;17.90;48.00;;;;;;5093998;28;20048;-73
2021/05/31 08:09:48;;;;;;;8.52;3.25;;;17.90;47.50;;;;;;5075029;28;20010;-72
2021/05/31 08:12:15;;;;;;;10.35;2.70;;;18.00;47.70;;;;;;5075045;28;20492;-72
2021/05/31 08:14:41;;;;;;;6.45;2.70;;;18.00;47.10;;;;;;5074709;28;20044;-72
2021/05/31 08:17:07;;;;;;;;;;;18.10;47.80;;;;;;5093796;28;20529;-72
2021/05/31 08:19:37;;;;;;;9.57;3.22;;;18.20;47.80;;;;;;5092781;28;19916;-72
2021/05/31 08:22:22;;;;;;;7.93;2.90;;;18.20;47.00;;;;;;5074923;28;20040;-72
2021/05/31 08:24:49;;;;;;;5.50;2.58;;;18.30;47.40;;;;;;5092807;28;20412;-72
2021/05/31 08:27:15;;;;;;;5.88;2.90;;;18.40;46.90;;;;;;5074905;28;20047;-71
2021/05/31 08:29:41;;;;;;;5.70;2.90;;;18.50;47.40;;;;;;5074523;28;20044;-72
2021/05/31 08:32:07;;;;;;;;;;;18.60;47.30;;;;;;5075260;28;20447;-72
2021/05/31 08:34:34;;;;;;;10.10;3.45;;;18.60;46.90;;;;;;5074574;28;19923;-71
2021/05/31 08:37:01;;;;;;;11.77;3.28;;;18.70;47.30;;;;;;5057928;28;20400;-72
2021/05/31 08:39:27;;;;;;;4.90;2.17;;;18.70;46.70;;;;;;5074544;28;20040;-72
2021/05/31 08:41:54;;;;;;;6.28;2.60;;;18.80;46.10;;;;;;5074620;28;20447;-72
2021/05/31 08:44:20;;;;;;;5.65;2.72;;;18.80;46.30;;;;;;5074460;28;20120;-71
2021/05/31 08:46:47;;;;;;;11.85;3.00;;;18.90;46.20;;;;;;5092951;28;20048;-72
2021/05/31 08:49:14;;;;;;;5.07;2.75;;;19.00;46.10;;;;;;5074241;28;20093;-72
2021/05/31 08:51:40;;;;;;;11.27;3.05;;;19.00;46.00;;;;;;5074379;28;20065;-72
2021/05/31 08:54:07;;;;;;;10.32;2.53;;;19.00;45.30;;;;;;5057665;28;20063;-71
2021/05/31 08:56:36;;;;;;;5.63;3.15;;;19.00;45.30;;;;;;5092756;28;20047;-71
2021/05/31 08:59:04;;;;;;;6.53;2.78;;;19.10;45.70;;;;;;5074158;28;20043;-72
2021/05/31 09:01:30;;;;;;;5.90;2.85;;;19.30;45.30;;;;;;5074510;28;20047;-72
2021/05/31 09:03:57;;;;;;;5.50;2.70;;;19.50;45.20;;;;;;5075874;28;20036;-71
2021/05/31 09:06:26;;;;;;;6.47;2.90;;;19.70;44.90;;;;;;5061581;28;20071;-72
2021/05/31 09:08:56;;;;;;;6.88;2.05;;;20.10;44.50;;;;;;5078319;28;20032;-70
2021/05/31 09:11:25;;;;;;;7.57;2.85;;;20.40;43.20;;;;;;5061287;28;20047;-72
2021/05/31 09:13:52;;;;;;;5.65;2.42;;;20.80;42.20;;;;;;5078249;28;20040;-72
2021/05/31 09:16:39;;;;;;;7.65;3.00;;;21.50;41.30;;;;;;5078264;28;20040;-72
2021/05/31 09:19:06;;;;;;;6.72;2.53;;;22.40;40.10;;;;;;5078131;28;20036;-72
2021/05/31 09:21:54;;;;;;;7.28;2.72;;;23.10;38.70;;;;;;5096412;28;20393;-72
2021/05/31 09:27:07;;;;;;;5.88;2.05;;;24.40;36.50;;;;;;5096375;28;20079;-72
2021/05/31 09:29:33;;;;;;;6.45;2.60;;;25.00;34.60;;;;;;5094108;28;20042;-72
2021/05/31 09:32:04;;;;;;;7.60;2.33;;;25.60;34.00;;;;;;5077761;28;20074;-72
2021/05/31 09:34:31;;;;;;;5.60;2.55;;;26.10;32.80;;;;;;5095672;28;20040;-72
2021/05/31 09:37:01;;;;;;;4.55;2.28;;;26.70;32.40;;;;;;5077721;28;20040;-73
2021/05/31 09:39:46;;;;;;;7.13;3.08;;;27.30;31.20;;;;;;5095631;28;20044;-72
2021/05/31 09:42:15;;;;;;;15.05;2.45;;;28.10;31.20;;;;;;5077440;28;20073;-72
2021/05/31 09:44:45;;;;;;;5.85;3.13;;;28.80;28.80;;;;;;5077487;28;20036;-72
2021/05/31 09:47:12;;;;;;;3.97;2.03;;;29.50;28.30;;;;;;5077615;28;20036;-72
2021/05/31 09:49:40;;;;;;;7.65;2.45;;;30.10;27.50;;;;;;5095258;28;20051;-72
2021/05/31 09:52:25;;;;;;;5.45;2.28;;;30.60;26.80;;;;;;5077229;28;20052;-72
2021/05/31 09:54:54;;;;;;;7.28;2.15;;;31.40;26.50;;;;;;5077171;28;20032;-72
2021/05/31 09:57:24;;;;;;;5.70;2.20;;;31.90;25.10;;;;;;5060344;28;20048;-72
2021/05/31 09:59:55;;;;;;;9.13;2.40;;;32.60;24.20;;;;;;5077140;28;20492;-72
2021/05/31 10:03:08;;;;;;;4.63;1.83;;;33.00;24.00;;;;;;5077708;28;20084;-73
2021/05/31 10:05:59;;;;;;;4.95;2.08;;;33.50;24.00;;;;;;5095133;28;20427;-72
2021/05/31 10:11:04;;;;;;;6.55;2.00;;;34.90;21.50;;;;;;5078301;28;20504;-73
2021/05/31 10:13:32;;;;;;;9.70;2.00;;;35.30;21.30;;;;;;5060120;28;20550;-73
2021/05/31 10:18:46;;;;;;;4.20;1.90;;;36.30;19.90;;;;;;5094921;28;20491;-73
2021/05/31 10:21:14;;;;;;;5.50;1.70;;;36.90;19.00;;;;;;5094993;28;20075;-73
2021/05/31 10:23:40;;;;;;;4.07;1.92;;;37.30;18.80;;;;;;5076652;28;20028;-73
2021/05/31 10:26:11;;;;;;;3.55;1.60;;;37.00;18.40;;;;;;5076778;28;20058;-73
2021/05/31 10:28:40;;;;;;;4.63;1.70;;;36.20;19.10;;;;;;5077268;28;20086;-73
2021/05/31 10:31:10;;;;;;;5.20;1.85;;;36.70;18.70;;;;;;5076579;28;20134;-73
2021/05/31 10:39:05;;;;;;;6.13;2.00;;;37.10;18.60;;;;;;5079286;28;20071;-73
2021/05/31 10:44:19;;;;;;;6.72;1.70;;;39.10;16.70;;;;;;5079063;28;20040;-73
2021/05/31 10:46:46;;;;;;;4.05;1.90;;;39.90;16.40;;;;;;5076457;28;20071;-73
2021/05/31 10:49:31;;;;;;;3.88;2.08;;;40.60;16.20;;;;;;5076189;28;20081;-72
2021/05/31 10:51:57;;;;;;;4.10;1.75;;;41.40;15.80;;;;;;5094052;28;20102;-73
2021/05/31 10:57:11;;;;;;;6.20;2.15;;;42.10;14.80;;;;;;5094593;28;20524;-73
2021/05/31 10:59:51;;;;;;;5.20;1.90;;;42.20;14.20;;;;;;5075838;28;20047;-73
2021/05/31 11:02:36;;;;;;;4.10;1.98;;;41.90;14.60;;;;;;5076156;28;20434;-73
2021/05/31 11:09:20;;;;;;;4.40;1.90;;;42.90;14.20;;;;;;5093900;28;20042;-73
2021/05/31 11:12:05;;;;;;;3.03;1.88;;;43.00;14.30;;;;;;5075557;28;20500;-73
2021/05/31 11:14:51;;;;;;;3.47;1.90;;;43.70;13.20;;;;;;5093720;28;20036;-73
2021/05/31 11:17:51;;;;;;;4.18;1.90;;;44.40;12.50;;;;;;5075868;28;20543;-73
2021/05/31 11:20:20;;;;;;;6.88;1.90;;;44.70;12.70;;;;;;5075573;28;20032;-73
2021/05/31 11:23:23;;;;;;;3.25;1.90;;;44.90;12.20;;;;;;5075571;28;20036;-73
2021/05/31 11:25:49;;;;;;;3.13;1.90;;;44.90;12.60;;;;;;5093689;28;20139;-74
2021/05/31 11:28:35;;;;;;;6.68;2.17;;;45.40;12.60;;;;;;5057746;28;20040;-73
2021/05/31 11:31:01;;;;;;;3.80;2.08;;;45.10;12.00;;;;;;5075244;28;20060;-73
2021/05/31 11:36:54;;;;;;;3.10;1.60;;;41.10;13.40;;;;;;5093753;28;20055;-73
2021/05/31 11:39:21;;;;;;;4.13;2.10;;;39.20;14.60;;;;;;5075092;28;20036;-73
2021/05/31 11:41:50;;;;;;;4.35;2.15;;;38.70;14.30;;;;;;5075119;28;20040;-73
2021/05/31 11:44:28;;;;;;;4.15;2.33;;;38.40;14.90;;;;;;5075115;28;20032;-73
2021/05/31 11:47:33;;;;;;;3.75;1.70;;;38.90;14.70;;;;;;5075162;28;20131;-73
2021/05/31 11:49:59;;;;;;;4.00;2.10;;;40.50;14.50;;;;;;5092880;28;20119;-73
2021/05/31 11:52:44;;;;;;;3.83;1.92;;;41.80;13.50;;;;;;5092759;28;20044;-73
2021/05/31 11:55:24;;;;;;;16.33;2.38;;;42.70;12.80;;;;;;5075008;28;20554;-72
2021/05/31 11:58:11;;;;;;;15.32;3.10;;;42.40;12.90;;;;;;5075052;28;20476;-73
2021/05/31 12:00:58;;;;;;;18.65;2.38;;;40.50;14.20;;;;;;5074822;28;20404;-72
2021/05/31 12:03:44;;;;;;;5.72;2.00;;;39.20;15.10;;;;;;5093007;28;20427;-73
2021/05/31 12:06:14;;;;;;;8.32;3.35;;;37.60;15.70;;;;;;5074991;28;20128;-73
2021/05/31 12:08:40;;;;;;;10.95;5.90;;;36.30;16.50;;;;;;5074854;28;20043;-72
2021/05/31 12:11:06;;;;;;;7.88;3.92;;;36.20;17.10;;;;;;5092987;28;20056;-73
2021/05/31 12:13:34;;;;;;;5.82;2.40;;;37.90;16.30;;;;;;5092780;28;20039;-73
2021/05/31 12:16:19;;;;;;;8.50;2.28;;;39.80;14.90;;;;;;5074935;28;20040;-73
2021/05/31 12:19:22;;;;;;;4.28;2.10;;;41.10;14.60;;;;;;5074759;28;20107;-72
2021/05/31 12:22:08;;;;;;;4.07;2.13;;;42.10;13.40;;;;;;5074771;28;20048;-73
2021/05/31 12:24:41;;;;;;;5.10;1.87;;;42.90;12.50;;;;;;5058090;28;20069;-73
2021/05/31 12:27:08;;;;;;;5.47;2.45;;;43.40;12.50;;;;;;5074995;28;20453;-73
2021/05/31 12:29:56;;;;;;;4.80;2.10;;;44.10;11.90;;;;;;5074663;28;20040;-73
2021/05/31 12:32:25;;;;;;;5.63;2.42;;;44.30;11.90;;;;;;5074920;28;20052;-72
2021/05/31 12:34:52;;;;;;;4.43;2.20;;;44.60;11.60;;;;;;5092613;28;20568;-72
2021/05/31 12:37:23;;;;;;;3.30;1.80;;;45.00;11.90;;;;;;5093066;28;20362;-73
2021/05/31 12:39:52;;;;;;;5.30;2.63;;;45.60;11.20;;;;;;5077674;28;20043;-73
2021/05/31 12:42:37;;;;;;;4.47;2.42;;;44.90;10.80;;;;;;5096991;28;20040;-73
2021/05/31 12:45:22;;;;;;;3.85;1.73;;;43.70;12.00;;;;;;5061564;28;20040;-72
2021/05/31 12:47:50;;;;;;;7.93;5.00;;;43.40;12.30;;;;;;5096647;28;20544;-73
2021/05/31 12:50:37;;;;;;;6.15;4.05;;;41.80;12.40;;;;;;5078646;28;20039;-73
2021/05/31 12:53:26;;;;;;;10.40;2.65;;;40.10;13.50;;;;;;5078773;28;20048;-73
2021/05/31 12:55:59;;;;;;;21.30;3.10;;;38.70;14.20;;;;;;5078488;28;20040;-73
2021/05/31 12:58:29;;;;;;;8.52;2.47;;;38.10;14.80;;;;;;5078197;28;20040;-73
2021/05/31 13:00:58;;;;;;;5.13;3.05;;;37.60;14.90;;;;;;5096827;28;20048;-72
2021/05/31 13:03:32;;;;;;;57.55;43.33;;;37.00;15.70;;;;;;5078613;28;20119;-73
2021/05/31 13:05:59;;;;;;;105.03;67.53;;;36.60;15.40;;;;;;5078376;28;20102;-72
2021/05/31 13:08:38;;;;;;;23.42;13.18;;;36.90;15.20;;;;;;5078215;28;20035;-74
2021/05/31 13:11:04;;;;;;;13.45;5.40;;;37.00;16.20;;;;;;5094831;28;20453;-73
2021/05/31 13:13:49;;;;;;;6.10;2.97;;;36.50;15.50;;;;;;5096110;28;20049;-72
2021/05/31 13:16:28;;;;;;;6.80;2.20;;;36.20;16.40;;;;;;5078118;28;20048;-73
2021/05/31 13:19:00;;;;;;;10.77;5.53;;;35.80;16.40;;;;;;5061167;28;20036;-73
2021/05/31 13:21:28;;;;;;;10.68;3.25;;;35.40;16.90;;;;;;5077645;28;20048;-72
2021/05/31 13:23:55;;;;;;;3.83;1.70;;;35.60;17.20;;;;;;5078095;28;20040;-72
2021/05/31 13:26:24;;;;;;;4.18;2.17;;;37.20;16.30;;;;;;5096015;28;20041;-73
2021/05/31 13:29:10;;;;;;;4.20;2.03;;;38.10;15.50;;;;;;5077583;28;20044;-72
2021/05/31 13:31:39;;;;;;;3.67;1.88;;;37.90;15.30;;;;;;5096072;28;20404;-72
2021/05/31 13:34:08;;;;;;;3.65;2.20;;;36.90;15.70;;;;;;5096013;28;20097;-72
2021/05/31 13:36:34;;;;;;;6.28;3.03;;;35.80;16.90;;;;;;5096010;28;20536;-72
2021/05/31 13:39:23;;;;;;;7.75;2.25;;;34.60;18.00;;;;;;5095545;28;20040;-73
2021/05/31 13:41:53;;;;;;;8.95;2.30;;;33.70;18.90;;;;;;5095971;28;20047;-73
2021/05/31 13:44:22;;;;;;;5.32;1.95;;;32.90;19.00;;;;;;5060557;28;20075;-73
2021/05/31 13:46:49;;;;;;;4.32;2.15;;;32.30;19.90;;;;;;5095876;28;20048;-73
2021/05/31 13:49:18;;;;;;;7.60;2.70;;;31.70;19.60;;;;;;5077259;28;20043;-72
2021/05/31 13:51:50;;;;;;;9.80;5.10;;;31.30;20.80;;;;;;5094318;28;20056;-72
2021/05/31 13:54:18;;;;;;;10.13;5.18;;;30.90;21.00;;;;;;5077504;28;20372;-72
2021/05/31 13:56:45;;;;;;;7.10;4.55;;;30.80;21.50;;;;;;5060925;28;20093;-72
2021/05/31 13:59:12;;;;;;;10.27;5.88;;;30.80;21.80;;;;;;5077153;28;20404;-72